Aviation Digital Data Service (ADDS)

Output produced by TAFs form (2349 UTC 18 July 2018)
found at http://www.aviationweather.gov/adds/tafs/
 
RJCM 182300Z 22003KT 150V300 9999 FEW010 BKN/// 20/15 Q1011
TAF RJCM 182320Z 1900/2006 18005KT 9999 FEW015 SCT030 
     BECMG 1900/1902 05006KT 
     BECMG 1908/1910 18010KT